createdAt,value
2023-02-09T00:00:28.293Z,13.20
2023-02-09T00:01:28.268Z,9.40
2023-02-09T00:02:28.299Z,13.30
2023-02-09T00:03:28.276Z,11.00
2023-02-09T00:04:28.214Z,14.90
2023-02-09T00:05:28.187Z,11.30
2023-02-09T00:06:28.172Z,12.00
2023-02-09T00:07:28.146Z,12.00
2023-02-09T00:08:28.130Z,12.30
2023-02-09T00:09:28.107Z,11.50
2023-02-09T00:10:28.089Z,13.30
2023-02-09T00:11:28.064Z,13.40
2023-02-09T00:12:28.049Z,12.80
2023-02-09T00:13:28.021Z,11.30
2023-02-09T00:14:28.025Z,10.20
2023-02-09T00:15:28.034Z,11.10
2023-02-09T00:16:28.024Z,10.20
2023-02-09T00:17:27.940Z,10.30
2023-02-09T00:18:27.921Z,11.10
2023-02-09T00:19:27.897Z,13.90
2023-02-09T00:20:27.884Z,11.90
2023-02-09T00:21:27.859Z,9.20
2023-02-09T00:22:27.839Z,14.20
2023-02-09T00:23:27.823Z,11.10
2023-02-09T00:24:27.799Z,11.20
2023-02-09T00:25:27.773Z,11.90
2023-02-09T00:26:27.755Z,10.40
2023-02-09T00:27:27.735Z,9.10
2023-02-09T00:28:27.806Z,10.50
2023-02-09T00:29:27.698Z,11.50
2023-02-09T00:30:27.675Z,13.60
2023-02-09T00:31:27.740Z,10.80
2023-02-09T00:32:27.639Z,9.40
2023-02-09T00:33:27.608Z,11.40
2023-02-09T00:34:27.588Z,11.60
2023-02-09T00:35:27.565Z,15.60
2023-02-09T00:36:27.604Z,11.80
2023-02-09T00:37:27.522Z,10.40
2023-02-09T00:38:27.505Z,12.20
2023-02-09T00:39:27.480Z,10.70
2023-02-09T00:40:27.463Z,12.10
2023-02-09T00:41:27.439Z,10.20
2023-02-09T00:42:27.424Z,13.00
2023-02-09T00:43:27.400Z,15.00
2023-02-09T00:44:27.387Z,12.30
2023-02-09T00:45:27.360Z,12.20
2023-02-09T00:46:27.345Z,11.50
2023-02-09T00:47:27.334Z,12.00
2023-02-09T00:48:27.304Z,13.40
2023-02-09T00:49:27.272Z,11.70
2023-02-09T00:50:27.253Z,11.90
2023-02-09T00:51:27.232Z,9.60
2023-02-09T00:52:27.216Z,15.70
2023-02-09T00:53:27.192Z,12.70
2023-02-09T00:54:27.176Z,15.40
2023-02-09T00:55:27.150Z,12.10
2023-02-09T00:56:27.136Z,12.20
2023-02-09T00:57:27.106Z,9.20
2023-02-09T00:58:27.088Z,10.00
2023-02-09T00:59:27.065Z,13.40
2023-02-09T01:00:27.046Z,12.80
2023-02-09T01:01:27.079Z,12.30
2023-02-09T01:02:27.007Z,8.90
2023-02-09T01:03:27.005Z,10.60
2023-02-09T01:04:27.002Z,10.10
2023-02-09T01:05:26.937Z,11.00
2023-02-09T01:06:26.920Z,10.00
2023-02-09T01:07:26.905Z,10.90
2023-02-09T01:08:27.079Z,14.30
2023-02-09T01:09:26.851Z,12.50
2023-02-09T01:10:26.838Z,13.20
2023-02-09T01:11:26.812Z,10.80
2023-02-09T01:12:26.800Z,10.90
2023-02-09T01:13:26.770Z,9.20
2023-02-09T01:14:26.756Z,12.10
2023-02-09T01:15:26.726Z,14.10
2023-02-09T01:16:26.774Z,9.40
2023-02-09T01:17:26.688Z,8.40
2023-02-09T01:18:26.669Z,8.80
2023-02-09T01:19:26.662Z,10.80
2023-02-09T01:20:26.625Z,12.00
2023-02-09T01:21:26.599Z,13.10
2023-02-09T01:22:26.582Z,11.20
2023-02-09T01:23:26.559Z,9.00
2023-02-09T01:24:26.545Z,12.60
2023-02-09T01:25:26.519Z,11.90
2023-02-09T01:26:26.515Z,10.50
2023-02-09T01:27:26.474Z,9.40
2023-02-09T01:28:26.544Z,10.40
2023-02-09T01:29:26.435Z,11.30
2023-02-09T01:30:26.464Z,12.00
2023-02-09T01:31:26.500Z,10.10
2023-02-09T01:32:26.375Z,16.40
2023-02-09T01:33:26.348Z,14.20
2023-02-09T01:34:26.331Z,11.30
2023-02-09T01:35:26.325Z,9.00
2023-02-09T01:36:26.291Z,9.50
2023-02-09T01:37:26.268Z,9.50
2023-02-09T01:38:26.454Z,8.90
2023-02-09T01:39:26.225Z,10.10
2023-02-09T01:40:26.207Z,10.30
2023-02-09T01:41:26.182Z,9.80
2023-02-09T01:42:26.176Z,11.40
2023-02-09T01:43:26.142Z,11.00
2023-02-09T01:44:26.124Z,17.10
2023-02-09T01:45:26.099Z,10.50
2023-02-09T01:46:26.148Z,10.30
2023-02-09T01:47:26.058Z,9.00
2023-02-09T01:48:26.055Z,10.80
2023-02-09T01:49:26.016Z,10.30
2023-02-09T01:50:25.999Z,8.50
2023-02-09T01:51:25.997Z,10.60
2023-02-09T01:52:25.959Z,14.40
2023-02-09T01:53:25.936Z,9.40
2023-02-09T01:54:25.921Z,9.80
2023-02-09T01:55:25.892Z,10.40
2023-02-09T01:56:25.875Z,12.10
2023-02-09T01:57:25.850Z,8.00
2023-02-09T01:58:25.829Z,9.10
2023-02-09T01:59:25.806Z,9.20
2023-02-09T02:00:25.997Z,12.10
2023-02-09T02:01:25.816Z,11.10
2023-02-09T02:02:25.803Z,10.40
2023-02-09T02:03:25.722Z,9.70
2023-02-09T02:04:25.709Z,9.00
2023-02-09T02:05:25.679Z,9.60
2023-02-09T02:06:25.666Z,10.40
2023-02-09T02:07:25.663Z,10.90
2023-02-09T02:08:25.619Z,10.80
2023-02-09T02:09:25.601Z,9.60
2023-02-09T02:10:25.578Z,10.40
2023-02-09T02:11:25.556Z,10.20
2023-02-09T02:14:25.489Z,11.90
2023-02-09T02:15:25.469Z,9.50
2023-02-09T02:16:25.447Z,9.30
2023-02-09T02:17:25.426Z,13.80
2023-02-09T02:18:25.407Z,10.40
2023-02-09T02:19:25.385Z,12.80
2023-02-09T02:20:25.374Z,12.60
2023-02-09T02:21:25.342Z,8.80
2023-02-09T02:22:25.318Z,9.70
2023-02-09T02:23:25.320Z,9.30
2023-02-09T02:24:25.273Z,10.20
2023-02-09T02:25:25.255Z,14.60
2023-02-09T02:26:25.238Z,11.10
2023-02-09T02:27:25.215Z,12.00
2023-02-09T02:28:25.254Z,8.60
2023-02-09T02:29:25.172Z,9.70
2023-02-09T02:30:58.528Z,11.60
2023-02-09T02:31:25.216Z,9.30
2023-02-09T02:32:25.110Z,13.00
2023-02-09T02:33:25.082Z,7.70
2023-02-09T02:34:25.068Z,8.40
2023-02-09T02:35:25.041Z,10.30
2023-02-09T02:36:25.032Z,9.30
2023-02-09T02:37:24.997Z,8.30
2023-02-09T02:38:24.980Z,9.50
2023-02-09T02:39:24.978Z,12.90
2023-02-09T02:40:24.937Z,9.80
2023-02-09T02:41:24.912Z,9.60
2023-02-09T02:42:25.096Z,8.30
2023-02-09T02:43:24.876Z,10.50
2023-02-09T02:44:24.854Z,14.50
2023-02-09T02:45:24.827Z,6.80
2023-02-09T02:46:24.861Z,10.40
2023-02-09T02:47:24.789Z,9.20
2023-02-09T02:48:24.770Z,8.10
2023-02-09T02:49:24.750Z,10.20
2023-02-09T02:50:24.779Z,9.50
2023-02-09T02:51:24.706Z,8.80
2023-02-09T02:52:24.688Z,10.70
2023-02-09T02:53:24.662Z,8.20
2023-02-09T02:54:24.650Z,13.60
2023-02-09T02:55:24.641Z,10.70
2023-02-09T02:56:24.614Z,9.40
2023-02-09T02:57:24.583Z,10.90
2023-02-09T02:59:24.542Z,8.60
2023-02-09T03:00:24.518Z,9.80
2023-02-09T03:01:24.534Z,10.90
2023-02-09T03:02:24.481Z,11.70
2023-02-09T03:03:24.461Z,11.10
2023-02-09T03:04:24.432Z,9.00
2023-02-09T03:05:24.471Z,10.60
2023-02-09T03:06:24.390Z,9.90
2023-02-09T03:08:24.354Z,12.10
2023-02-09T03:10:24.322Z,9.50
2023-02-09T03:11:24.321Z,11.80
2023-02-09T03:12:24.262Z,10.90
2023-02-09T03:13:24.246Z,10.90
2023-02-09T03:14:24.220Z,8.90
2023-02-09T03:15:24.203Z,10.40
2023-02-09T03:16:24.202Z,9.60
2023-02-09T03:17:24.159Z,6.70
2023-02-09T03:18:24.141Z,10.80
2023-02-09T03:19:24.118Z,9.40
2023-02-09T03:20:24.306Z,9.70
2023-02-09T03:21:24.078Z,11.70
2023-02-09T03:22:24.049Z,8.40
2023-02-09T03:23:24.035Z,8.30
2023-02-09T03:24:24.009Z,11.30
2023-02-09T03:25:24.019Z,9.00
2023-02-09T03:27:23.967Z,7.20
2023-02-09T03:28:23.974Z,12.40
2023-02-09T03:29:23.907Z,9.40
2023-02-09T03:30:23.916Z,9.20
2023-02-09T03:31:23.989Z,10.60
2023-02-09T03:32:24.043Z,7.20
2023-02-09T03:33:23.821Z,11.30
2023-02-09T03:34:23.805Z,12.90
2023-02-09T03:35:23.773Z,7.20
2023-02-09T03:37:23.749Z,8.70
2023-02-09T03:39:23.689Z,8.80
2023-02-09T03:40:23.670Z,9.70
2023-02-09T03:41:23.654Z,9.60
2023-02-09T03:43:23.625Z,10.40
2023-02-09T03:44:23.582Z,10.60
2023-02-09T03:45:23.564Z,12.10
2023-02-09T03:46:23.586Z,9.80
2023-02-09T03:47:23.529Z,8.60
2023-02-09T03:49:23.475Z,10.90
2023-02-09T03:50:23.460Z,9.80
2023-02-09T03:51:23.474Z,11.40
2023-02-09T03:52:23.421Z,7.90
2023-02-09T03:53:23.389Z,10.70
2023-02-09T03:55:23.349Z,12.30
2023-02-09T03:56:23.527Z,10.20
2023-02-09T03:57:23.306Z,10.70
2023-02-09T03:58:23.282Z,11.30
2023-02-09T03:59:23.283Z,8.10
2023-02-09T04:00:23.239Z,9.70
2023-02-09T04:01:23.221Z,7.40
2023-02-09T04:02:23.220Z,9.90
2023-02-09T04:04:23.154Z,9.30
2023-02-09T04:05:23.135Z,10.40
2023-02-09T04:07:23.293Z,9.40
2023-02-09T04:09:23.047Z,7.50
2023-02-09T04:11:23.626Z,11.30
2023-02-09T04:12:22.981Z,13.40
2023-02-09T04:13:22.962Z,10.50
2023-02-09T04:14:23.141Z,9.30
2023-02-09T04:15:22.939Z,9.20
2023-02-09T04:16:23.179Z,10.00
2023-02-09T04:17:22.877Z,13.70
2023-02-09T04:19:22.833Z,10.70
2023-02-09T04:20:22.825Z,10.40
2023-02-09T04:22:22.773Z,12.20
2023-02-09T04:23:22.748Z,8.10
2023-02-09T04:25:22.703Z,10.30
2023-02-09T04:28:22.711Z,10.80
2023-02-09T04:29:22.622Z,6.10
2023-02-09T04:30:22.805Z,8.90
2023-02-09T04:33:22.558Z,11.30
2023-02-09T04:34:22.518Z,9.70
2023-02-09T04:35:22.499Z,10.10
2023-02-09T04:36:22.480Z,9.40
2023-02-09T04:37:22.450Z,6.10
2023-02-09T04:39:22.411Z,10.20
2023-02-09T04:40:22.389Z,10.80
2023-02-09T04:41:22.374Z,7.30
2023-02-09T04:42:22.349Z,11.60
2023-02-09T04:43:22.326Z,12.20
2023-02-09T04:44:22.309Z,11.70
2023-02-09T04:45:22.284Z,9.20
2023-02-09T04:46:22.261Z,7.60
2023-02-09T04:47:22.241Z,11.40
2023-02-09T04:48:22.222Z,13.60
2023-02-09T04:49:22.225Z,10.40
2023-02-09T04:50:22.174Z,9.90
2023-02-09T04:51:22.155Z,9.10
2023-02-09T04:52:22.134Z,14.70
2023-02-09T04:53:22.139Z,11.20
2023-02-09T04:54:22.091Z,10.50
2023-02-09T04:55:22.086Z,16.30
2023-02-09T04:56:22.048Z,12.10
2023-02-09T04:57:22.027Z,10.90
2023-02-09T04:58:22.004Z,11.40
2023-02-09T04:59:21.987Z,12.00
2023-02-09T05:00:21.965Z,12.30
2023-02-09T05:01:21.981Z,9.80
2023-02-09T05:02:21.921Z,9.30
2023-02-09T05:03:24.563Z,13.10
2023-02-09T05:04:21.885Z,11.20
2023-02-09T05:05:22.283Z,14.70
2023-02-09T05:06:21.841Z,11.70
2023-02-09T05:07:21.813Z,6.70
2023-02-09T05:08:21.793Z,12.30
2023-02-09T05:09:21.773Z,9.90
2023-02-09T05:10:21.748Z,11.30
2023-02-09T05:12:21.712Z,10.00
2023-02-09T05:13:21.681Z,10.30
2023-02-09T05:14:21.672Z,11.40
2023-02-09T05:15:21.640Z,10.30
2023-02-09T05:16:21.733Z,10.50
2023-02-09T05:17:21.607Z,7.70
2023-02-09T05:18:21.578Z,10.90
2023-02-09T05:19:21.555Z,7.80
2023-02-09T05:20:21.747Z,11.60
2023-02-09T05:22:21.563Z,9.80
2023-02-09T05:23:21.471Z,10.70
2023-02-09T05:24:21.453Z,11.50
2023-02-09T05:25:21.435Z,12.00
2023-02-09T05:26:21.404Z,9.80
2023-02-09T05:27:21.442Z,11.60
2023-02-09T05:28:21.393Z,10.70
2023-02-09T05:29:22.275Z,10.10
2023-02-09T05:31:21.852Z,9.40
2023-02-09T05:33:21.259Z,12.40
2023-02-09T05:35:21.213Z,8.10
2023-02-09T05:36:21.193Z,8.90
2023-02-09T05:37:21.421Z,12.50
2023-02-09T05:38:21.172Z,10.70
2023-02-09T05:40:21.103Z,10.80
2023-02-09T05:41:21.090Z,10.90
2023-02-09T05:42:21.063Z,10.20
2023-02-09T05:43:21.048Z,8.00
2023-02-09T05:44:21.019Z,8.00
2023-02-09T05:46:21.043Z,9.00
2023-02-09T05:47:20.960Z,9.20
2023-02-09T05:48:20.936Z,8.30
2023-02-09T05:49:20.910Z,8.70
2023-02-09T05:52:20.854Z,9.80
2023-02-09T05:53:20.827Z,11.20
2023-02-09T05:54:20.833Z,12.00
2023-02-09T05:55:20.784Z,13.90
2023-02-09T05:56:20.761Z,11.20
2023-02-09T05:57:20.736Z,10.60
2023-02-09T05:58:20.923Z,10.40
2023-02-09T05:59:20.693Z,9.20
2023-02-09T06:00:20.683Z,11.00
2023-02-09T06:01:20.650Z,8.70
2023-02-09T06:02:20.690Z,8.80
2023-02-09T06:03:20.654Z,10.10
2023-02-09T06:04:20.795Z,9.10
2023-02-09T06:05:20.564Z,11.30
2023-02-09T06:10:20.686Z,10.30
2023-02-09T06:11:20.432Z,10.70
2023-02-09T06:14:20.572Z,8.40
2023-02-09T06:15:20.346Z,10.40
2023-02-09T06:16:20.531Z,13.50
2023-02-09T06:17:20.305Z,9.70
2023-02-09T06:20:20.241Z,9.30
2023-02-09T06:22:20.197Z,10.40
2023-02-09T06:23:20.178Z,10.70
2023-02-09T06:24:20.153Z,12.40
2023-02-09T06:25:20.358Z,12.40
2023-02-09T06:26:20.128Z,10.70
2023-02-09T06:28:20.075Z,9.50
2023-02-09T06:29:20.151Z,9.70
2023-02-09T06:30:20.181Z,9.40
2023-02-09T06:32:20.053Z,9.70
2023-02-09T06:33:20.168Z,10.00
2023-02-09T06:34:19.943Z,10.90
2023-02-09T06:36:19.901Z,8.50
2023-02-09T06:37:19.879Z,10.60
2023-02-09T06:38:19.857Z,8.30
2023-02-09T06:39:19.842Z,10.30
2023-02-09T06:40:19.816Z,14.10
2023-02-09T06:41:19.795Z,13.90
2023-02-09T06:42:19.838Z,9.20
2023-02-09T06:43:19.747Z,8.40
2023-02-09T06:44:19.732Z,12.40
2023-02-09T06:45:19.707Z,9.30
2023-02-09T06:46:19.752Z,10.80
2023-02-09T06:47:19.664Z,11.20
2023-02-09T06:48:19.646Z,11.40
2023-02-09T06:49:19.634Z,10.80
2023-02-09T06:50:19.658Z,11.20
2023-02-09T06:51:19.596Z,11.50
2023-02-09T06:52:19.562Z,11.30
2023-02-09T06:53:19.540Z,12.70
2023-02-09T06:54:19.515Z,11.20
2023-02-09T06:55:19.696Z,8.30
2023-02-09T06:56:19.474Z,9.10
2023-02-09T06:57:19.448Z,9.80
2023-02-09T06:58:52.679Z,13.20
2023-02-09T06:59:19.408Z,11.50
2023-02-09T07:00:19.852Z,7.70
2023-02-09T07:01:19.416Z,9.60
2023-02-09T07:02:19.370Z,11.00
2023-02-09T07:03:19.327Z,10.10
2023-02-09T07:04:19.523Z,7.40
2023-02-09T07:06:19.276Z,11.30
2023-02-09T07:07:19.240Z,17.20
2023-02-09T07:08:19.219Z,10.10
2023-02-09T07:09:19.194Z,9.10
2023-02-09T07:10:19.174Z,9.70
2023-02-09T07:11:19.152Z,9.40
2023-02-09T07:12:19.127Z,6.60
2023-02-09T07:13:19.108Z,11.40
2023-02-09T07:14:19.107Z,11.30
2023-02-09T07:15:19.200Z,8.60
2023-02-09T07:17:19.224Z,10.00
2023-02-09T07:18:19.013Z,8.90
2023-02-09T07:19:18.980Z,11.70
2023-02-09T07:21:18.937Z,11.40
2023-02-09T07:22:18.915Z,8.90
2023-02-09T07:24:18.874Z,11.80
2023-02-09T07:25:18.849Z,17.10
2023-02-09T07:26:18.828Z,8.60
2023-02-09T07:28:18.821Z,11.10
2023-02-09T07:29:18.767Z,8.30
2023-02-09T07:30:18.991Z,12.30
2023-02-09T07:31:18.903Z,8.40
2023-02-09T07:32:18.905Z,14.90
2023-02-09T07:33:18.682Z,12.00
2023-02-09T07:34:18.676Z,14.10
2023-02-09T07:35:18.640Z,8.60
2023-02-09T07:36:18.629Z,13.80
2023-02-09T07:37:18.821Z,9.40
2023-02-09T07:38:18.578Z,10.00
2023-02-09T07:39:18.553Z,11.50
2023-02-09T07:40:18.535Z,10.70
2023-02-09T07:41:18.527Z,15.30
2023-02-09T07:42:18.487Z,12.30
2023-02-09T07:43:18.467Z,14.40
2023-02-09T07:44:18.444Z,7.90
2023-02-09T07:45:18.428Z,11.00
2023-02-09T07:46:18.446Z,12.30
2023-02-09T07:47:18.398Z,12.60
2023-02-09T07:48:18.357Z,10.40
2023-02-09T07:49:18.338Z,9.90
2023-02-09T07:50:20.101Z,10.50
2023-02-09T07:51:18.297Z,12.40
2023-02-09T07:52:18.280Z,11.90
2023-02-09T07:53:18.258Z,10.60
2023-02-09T07:54:18.229Z,18.20
2023-02-09T07:55:18.212Z,14.30
2023-02-09T07:56:18.194Z,12.30
2023-02-09T07:57:18.170Z,12.80
2023-02-09T07:58:18.164Z,9.70
2023-02-09T07:59:18.133Z,11.10
2023-02-09T08:01:18.360Z,13.40
2023-02-09T08:02:18.091Z,12.40
2023-02-09T08:03:18.050Z,15.00
2023-02-09T08:04:18.024Z,20.10
2023-02-09T08:05:18.059Z,13.00
2023-02-09T08:06:19.479Z,15.80
2023-02-09T08:07:17.957Z,12.10
2023-02-09T08:08:17.944Z,13.70
2023-02-09T08:09:17.924Z,11.90
2023-02-09T08:10:17.898Z,14.50
2023-02-09T08:11:17.881Z,15.80
2023-02-09T08:12:17.924Z,16.40
2023-02-09T08:13:17.833Z,12.90
2023-02-09T08:14:17.816Z,13.90
2023-02-09T08:15:17.793Z,12.40
2023-02-09T08:16:17.803Z,12.90
2023-02-09T08:17:17.750Z,12.30
2023-02-09T08:18:17.757Z,10.60
2023-02-09T08:19:17.710Z,11.20
2023-02-09T08:20:17.720Z,11.70
2023-02-09T08:21:17.679Z,17.00
2023-02-09T08:22:17.649Z,14.10
2023-02-09T08:23:17.643Z,12.60
2023-02-09T08:24:17.612Z,10.10
2023-02-09T08:25:17.586Z,19.30
2023-02-09T08:26:17.569Z,14.00
2023-02-09T08:27:17.549Z,15.90
2023-02-09T08:28:17.612Z,13.60
2023-02-09T08:29:17.507Z,11.70
2023-02-09T08:30:17.494Z,13.50
2023-02-09T08:31:17.643Z,21.10
2023-02-09T08:32:17.491Z,13.40
2023-02-09T08:33:17.423Z,17.10
2023-02-09T08:34:17.426Z,16.50
2023-02-09T08:35:17.402Z,14.80
2023-02-09T08:37:17.344Z,14.80
2023-02-09T08:38:17.321Z,18.90
2023-02-09T08:39:17.307Z,16.80
2023-02-09T08:40:17.289Z,14.50
2023-02-09T08:41:17.269Z,13.60
2023-02-09T08:43:17.224Z,17.60
2023-02-09T08:44:17.206Z,16.70
2023-02-09T08:45:17.180Z,17.80
2023-02-09T08:46:17.312Z,17.40
2023-02-09T08:49:17.102Z,18.70
2023-02-09T08:50:17.102Z,15.30
2023-02-09T08:51:17.066Z,16.90
2023-02-09T08:52:17.045Z,17.30
2023-02-09T08:53:17.022Z,18.40
2023-02-09T08:54:17.010Z,16.90
2023-02-09T08:55:16.990Z,14.00
2023-02-09T08:56:16.978Z,18.00
2023-02-09T08:57:16.961Z,17.70
2023-02-09T08:58:16.934Z,16.50
2023-02-09T08:59:19.692Z,16.30
2023-02-09T09:00:16.901Z,17.20
2023-02-09T09:01:16.981Z,17.10
2023-02-09T09:02:16.850Z,16.80
2023-02-09T09:03:16.865Z,18.00
2023-02-09T09:04:16.843Z,16.80
2023-02-09T09:05:16.820Z,19.20
2023-02-09T09:06:16.801Z,15.40
2023-02-09T09:07:16.748Z,20.30
2023-02-09T09:08:16.735Z,20.00
2023-02-09T09:09:16.712Z,14.10
2023-02-09T09:10:16.697Z,15.20
2023-02-09T09:11:16.875Z,17.70
2023-02-09T09:12:16.657Z,18.20
2023-02-09T09:13:16.634Z,19.90
2023-02-09T09:14:16.624Z,13.60
2023-02-09T09:15:16.597Z,15.70
2023-02-09T09:16:16.647Z,17.20
2023-02-09T09:17:16.564Z,16.70
2023-02-09T09:18:16.540Z,15.20
2023-02-09T09:19:16.541Z,17.60
2023-02-09T09:20:16.504Z,16.20
2023-02-09T09:21:16.481Z,15.90
2023-02-09T09:22:16.484Z,17.00
2023-02-09T09:23:16.443Z,14.40
2023-02-09T09:24:16.429Z,17.20
2023-02-09T09:25:16.467Z,14.50
2023-02-09T09:26:16.401Z,18.20
2023-02-09T09:27:16.368Z,14.90
2023-02-09T09:28:16.417Z,17.90
2023-02-09T09:29:16.336Z,21.00
2023-02-09T09:30:16.313Z,18.20
2023-02-09T09:31:16.385Z,17.20
2023-02-09T09:32:16.419Z,18.10
2023-02-09T09:33:16.382Z,20.80
2023-02-09T09:34:16.238Z,14.20
2023-02-09T09:35:16.217Z,16.60
2023-02-09T09:36:16.200Z,16.60
2023-02-09T09:37:16.187Z,19.30
2023-02-09T09:38:16.183Z,17.10
2023-02-09T09:39:16.144Z,18.60
2023-02-09T09:40:16.132Z,15.90
2023-02-09T09:41:16.105Z,18.90
2023-02-09T09:42:16.096Z,17.40
2023-02-09T09:43:16.080Z,19.20
2023-02-09T09:44:16.060Z,21.00
2023-02-09T09:45:16.084Z,15.00
2023-02-09T09:46:16.071Z,17.40
2023-02-09T09:47:16.016Z,18.10
2023-02-09T09:48:15.979Z,15.50
2023-02-09T09:49:15.962Z,18.20
2023-02-09T09:50:15.952Z,20.80
2023-02-09T09:51:15.923Z,19.30
2023-02-09T09:52:15.907Z,15.90
2023-02-09T09:53:15.882Z,18.00
2023-02-09T09:54:15.900Z,15.10
2023-02-09T09:55:15.847Z,21.00
2023-02-09T09:56:15.848Z,17.30
2023-02-09T09:57:15.812Z,15.50
2023-02-09T09:58:15.820Z,17.60
2023-02-09T09:59:15.772Z,14.70
2023-02-09T10:00:15.778Z,23.80
2023-02-09T10:01:15.805Z,14.90
2023-02-09T10:02:15.724Z,15.70
2023-02-09T10:03:15.702Z,15.10
2023-02-09T10:04:15.780Z,15.90
2023-02-09T10:05:15.664Z,20.00
2023-02-09T10:06:15.714Z,16.90
2023-02-09T10:07:17.018Z,16.40
2023-02-09T10:08:15.620Z,15.50
2023-02-09T10:09:15.617Z,15.30
2023-02-09T10:10:15.608Z,14.70
2023-02-09T10:11:15.562Z,16.80
2023-02-09T10:12:15.547Z,14.90
2023-02-09T10:13:15.520Z,11.80
2023-02-09T10:14:15.515Z,14.10
2023-02-09T10:15:15.485Z,12.40
2023-02-09T10:16:15.471Z,12.40
2023-02-09T10:17:15.452Z,16.90
2023-02-09T10:18:15.435Z,20.10
2023-02-09T10:19:15.415Z,18.80
2023-02-09T10:20:15.400Z,16.00
2023-02-09T10:21:15.379Z,17.30
2023-02-09T10:22:15.365Z,17.60
2023-02-09T10:23:15.343Z,18.20
2023-02-09T10:24:15.330Z,14.20
2023-02-09T10:25:15.307Z,16.90
2023-02-09T10:26:15.329Z,20.90
2023-02-09T10:27:15.282Z,18.80
2023-02-09T10:28:15.331Z,16.40
2023-02-09T10:29:15.239Z,16.50
2023-02-09T10:30:15.223Z,16.20
2023-02-09T10:31:15.294Z,16.80
2023-02-09T10:32:15.236Z,17.40
2023-02-09T10:33:15.170Z,15.40
2023-02-09T10:34:15.150Z,17.20
2023-02-09T10:35:15.130Z,18.80
2023-02-09T10:36:15.116Z,18.00
2023-02-09T10:37:15.094Z,18.40
2023-02-09T10:38:15.081Z,18.30
2023-02-09T10:39:15.060Z,15.70
2023-02-09T10:40:15.046Z,16.70
2023-02-09T10:41:15.029Z,17.00
2023-02-09T10:42:15.037Z,17.70
2023-02-09T10:43:14.991Z,15.80
2023-02-09T10:44:14.978Z,18.50
2023-02-09T10:45:14.957Z,20.30
2023-02-09T10:46:14.987Z,18.40
2023-02-09T10:47:14.921Z,17.60
2023-02-09T10:48:14.908Z,18.80
2023-02-09T10:49:14.885Z,17.80
2023-02-09T10:50:14.922Z,18.90
2023-02-09T10:51:14.851Z,17.10
2023-02-09T10:52:14.839Z,16.90
2023-02-09T10:53:14.816Z,20.80
2023-02-09T10:54:14.801Z,15.60
2023-02-09T10:55:14.787Z,15.90
2023-02-09T10:56:14.769Z,16.50
2023-02-09T10:57:14.746Z,17.20
2023-02-09T10:58:14.794Z,17.70
2023-02-09T10:59:14.714Z,17.40
2023-02-09T11:00:14.699Z,18.40
2023-02-09T11:01:14.694Z,24.10
2023-02-09T11:02:14.665Z,19.30
2023-02-09T11:03:14.647Z,18.30
2023-02-09T11:04:14.695Z,19.10
2023-02-09T11:05:14.614Z,21.40
2023-02-09T11:06:14.601Z,19.60
2023-02-09T11:07:14.581Z,20.10
2023-02-09T11:08:14.570Z,18.30
2023-02-09T11:09:14.554Z,17.00
2023-02-09T11:10:14.540Z,22.00
2023-02-09T11:11:14.569Z,21.20
2023-02-09T11:13:14.486Z,16.60
2023-02-09T11:14:14.492Z,17.90
2023-02-09T11:15:14.459Z,18.00
2023-02-09T11:16:14.494Z,19.60
2023-02-09T11:17:14.434Z,18.10
2023-02-09T11:18:14.402Z,17.90
2023-02-09T11:19:14.387Z,18.20
2023-02-09T11:20:14.366Z,18.60
2023-02-09T11:21:14.352Z,21.90
2023-02-09T11:22:14.332Z,22.10
2023-02-09T11:23:14.319Z,19.10
2023-02-09T11:24:14.513Z,17.70
2023-02-09T11:25:14.285Z,24.80
2023-02-09T11:26:14.265Z,22.80
2023-02-09T11:27:14.254Z,21.50
2023-02-09T11:28:14.312Z,24.40
2023-02-09T11:29:14.219Z,17.00
2023-02-09T11:30:14.226Z,16.50
2023-02-09T11:31:14.287Z,21.00
2023-02-09T11:32:14.173Z,21.10
2023-02-09T11:33:14.152Z,16.90
2023-02-09T11:34:14.137Z,17.90
2023-02-09T11:35:14.123Z,23.70
2023-02-09T11:36:14.107Z,22.90
2023-02-09T11:38:14.070Z,27.90
2023-02-09T11:41:14.219Z,16.80
2023-02-09T11:42:14.011Z,17.00
2023-02-09T11:43:14.192Z,18.70
2023-02-09T11:44:14.177Z,18.20
2023-02-09T11:46:14.000Z,19.90
2023-02-09T11:48:13.908Z,19.60
2023-02-09T11:50:13.894Z,21.50
2023-02-09T11:51:13.859Z,20.60
2023-02-09T11:52:14.040Z,20.80
2023-02-09T11:53:13.824Z,19.70
2023-02-09T11:57:13.974Z,21.50
2023-02-09T11:58:13.946Z,22.50
2023-02-09T11:59:15.146Z,24.40
2023-02-09T12:01:16.106Z,18.70
2023-02-09T12:06:14.898Z,21.40
2023-02-09T12:09:13.773Z,25.80
2023-02-09T12:10:13.752Z,22.20
2023-02-09T12:11:13.732Z,18.60
2023-02-09T12:13:13.704Z,19.20
2023-02-09T12:14:13.687Z,20.70
2023-02-09T12:15:13.682Z,19.40
2023-02-09T12:17:13.436Z,18.70
2023-02-09T12:19:13.410Z,21.10
2023-02-09T12:20:13.386Z,20.50
2023-02-09T12:24:13.547Z,21.60
2023-02-09T12:27:13.478Z,21.80
2023-02-09T12:28:13.301Z,20.50
2023-02-09T12:29:13.455Z,22.50
2023-02-09T12:30:13.248Z,17.60
2023-02-09T12:31:13.499Z,20.60
2023-02-09T12:33:13.184Z,25.00
2023-02-09T12:34:13.163Z,19.80
2023-02-09T12:35:13.350Z,21.40
2023-02-09T12:36:13.547Z,21.00
2023-02-09T12:37:13.123Z,19.90
2023-02-09T12:38:13.105Z,25.70
2023-02-09T12:39:13.291Z,20.70
2023-02-09T12:41:13.087Z,21.70
2023-02-09T12:43:13.235Z,23.30
2023-02-09T12:44:13.203Z,23.90
2023-02-09T12:45:12.988Z,23.50
2023-02-09T12:47:12.952Z,14.90
2023-02-09T12:48:12.942Z,18.30
2023-02-09T12:49:12.920Z,20.90
2023-02-09T12:50:12.941Z,16.30
2023-02-09T12:51:12.892Z,16.90
2023-02-09T12:52:12.891Z,17.70
2023-02-09T12:53:13.058Z,22.80
2023-02-09T12:54:12.845Z,17.40
2023-02-09T12:55:12.831Z,20.40
2023-02-09T12:57:12.816Z,16.10
2023-02-09T12:58:12.780Z,16.70
2023-02-09T12:59:12.817Z,18.60
2023-02-09T13:00:12.752Z,17.40
2023-02-09T13:01:12.866Z,19.90
2023-02-09T13:02:12.716Z,19.60
2023-02-09T13:03:12.706Z,18.60
2023-02-09T13:04:12.754Z,18.20
2023-02-09T13:05:12.677Z,17.10
2023-02-09T13:06:12.658Z,18.80
2023-02-09T13:07:12.645Z,18.80
2023-02-09T13:08:12.630Z,16.50
2023-02-09T13:09:12.617Z,19.50
2023-02-09T13:10:12.651Z,19.20
2023-02-09T13:11:12.584Z,23.20
2023-02-09T13:12:12.568Z,24.70
2023-02-09T13:13:12.572Z,22.60
2023-02-09T13:14:12.535Z,14.10
2023-02-09T13:15:12.526Z,19.40
2023-02-09T13:17:12.489Z,17.90
2023-02-09T13:18:12.481Z,16.10
2023-02-09T13:19:12.457Z,18.30
2023-02-09T13:20:12.447Z,17.30
2023-02-09T13:22:12.413Z,18.80
2023-02-09T13:23:12.403Z,18.00
2023-02-09T13:25:12.371Z,17.70
2023-02-09T13:26:12.358Z,17.10
2023-02-09T13:27:12.337Z,16.90
2023-02-09T13:28:12.423Z,19.80
2023-02-09T13:29:20.541Z,19.00
2023-02-09T13:30:12.296Z,17.60
2023-02-09T13:31:12.287Z,17.10
2023-02-09T13:32:12.277Z,16.80
2023-02-09T13:33:12.254Z,17.00
2023-02-09T13:34:12.236Z,18.00
2023-02-09T13:35:12.215Z,16.20
2023-02-09T13:36:23.812Z,16.60
2023-02-09T13:38:12.170Z,15.90
2023-02-09T13:39:12.160Z,14.90
2023-02-09T13:40:12.340Z,17.90
2023-02-09T13:41:12.125Z,16.10
2023-02-09T13:42:12.106Z,16.10
2023-02-09T13:43:12.095Z,16.70
2023-02-09T13:44:12.078Z,17.50
2023-02-09T13:45:12.083Z,16.80
2023-02-09T13:46:12.107Z,14.70
2023-02-09T13:47:12.035Z,16.90
2023-02-09T13:48:13.192Z,15.30
2023-02-09T13:49:12.003Z,15.90
2023-02-09T13:50:11.986Z,15.60
2023-02-09T13:51:11.996Z,20.20
2023-02-09T13:52:11.997Z,19.80
2023-02-09T13:53:11.963Z,19.10
2023-02-09T13:54:11.940Z,13.60
2023-02-09T13:55:11.912Z,15.50
2023-02-09T13:56:11.911Z,16.00
2023-02-09T13:57:11.879Z,17.20
2023-02-09T13:58:11.863Z,16.70
2023-02-09T13:59:13.711Z,12.30
2023-02-09T14:00:11.842Z,17.70
2023-02-09T14:01:11.899Z,13.80
2023-02-09T14:02:11.802Z,14.40
2023-02-09T14:03:11.950Z,13.80
2023-02-09T14:04:11.769Z,13.50
2023-02-09T14:05:11.758Z,16.00
2023-02-09T14:06:11.739Z,14.40
2023-02-09T14:07:11.732Z,15.70
2023-02-09T14:08:11.737Z,22.60
2023-02-09T14:09:11.696Z,17.20
2023-02-09T14:10:11.677Z,14.20
2023-02-09T14:11:11.665Z,14.70
2023-02-09T14:12:11.650Z,15.10
2023-02-09T14:13:11.632Z,15.90
2023-02-09T14:14:11.616Z,17.10
2023-02-09T14:15:11.601Z,17.00
2023-02-09T14:17:24.524Z,17.00
2023-02-09T14:18:11.556Z,17.00
2023-02-09T14:19:11.536Z,11.90
2023-02-09T14:20:11.540Z,11.60
2023-02-09T14:21:11.507Z,14.00
2023-02-09T14:22:11.493Z,13.70
2023-02-09T14:23:11.473Z,15.70
2023-02-09T14:24:12.687Z,15.10
2023-02-09T14:25:11.440Z,15.60
2023-02-09T14:26:11.448Z,17.50